Αναφορές Αεροδρομίων

 

KSJC - San Jose, California, USA
Distance from station: ΒΑ 14km
Ενημερώθηκε: 25/09/2023 14:53
Αίθριος
Αίθριος
 Ανεμος από Ν
Ανεμος: Ν 6 km/h
Θερμοκρασία: 13°C
Σημείο Δρόσου: 11°C
Υγρασία: 88%
Βαρόμετρο: 1017.6 hPa
Clouds: Αίθριος
Visibility: 16 km
2023/09/25 11:53 KSJC 251153Z AUTO 17003KT 10SM CLR 13/11 A3005 RMK AO2 SLP175 T01330106 10178 20128 53004
KNUQ - Moffett Nas/Mtn, California, USA
Distance from station: Β 14km
Ενημερώθηκε: 25/09/2023 15:15
Αίθριος
Αίθριος
 Ανεμος από calm
Ανεμος: Απνοια
Θερμοκρασία: 13°C
Σημείο Δρόσου: 10°C
Υγρασία: 82%
Βαρόμετρο: 1017.9 hPa
Clouds: Αίθριος
Visibility: 16 km
2023/09/25 12:15 KNUQ 251215Z AUTO 00000KT 10SM CLR 13/10 A3006 RMK AO2
 
KPAO - Palo Alto, California, USA
Distance from station: ΒΒΔ 23km
Ενημερώθηκε: 25/09/2023 06:47
NOT Current
Αίθριος
Αίθριος
 Ανεμος από ΒΔ
Ανεμος: ΒΔ 6 km/h
Θερμοκρασία: 16°C
Σημείο Δρόσου: 12°C
Υγρασία: 77%
Βαρόμετρο: 1016.3 hPa
Clouds: Αίθριος
Visibility: 16 km
2023/09/25 03:47 KPAO 250347Z 31003KT 10SM SKC 16/12 A3001 RMK LAST
KRHV - San Jose/Reid, California, USA
Distance from station: ΑΒΑ 19km
Ενημερώθηκε: 25/09/2023 07:55
NOT Current
Αίθριος
Αίθριος
 Ανεμος από calm
Ανεμος: Απνοια
Θερμοκρασία: 17°C
Σημείο Δρόσου: 11°C
Υγρασία: 68%
Βαρόμετρο: 1016.6 hPa
Clouds: Αίθριος
Visibility: 16 km
2023/09/25 04:55 KRHV 250455Z 00000KT 10SM SKC 17/11 A3002 RMK LAST
 
KOAK - Oakland, California, USA
Distance from station: ΒΒΔ 50km
Ενημερώθηκε: 25/09/2023 14:53
Σχεδόν νεφελώδης
Σχεδόν νεφελώδης
 Ανεμος από ΑΝΑ
Ανεμος: ΑΝΑ 11 km/h
Θερμοκρασία: 13°C
Σημείο Δρόσου: 12°C
Υγρασία: 94%
Βαρόμετρο: 1017.9 hPa
Clouds: Σχεδόν νεφελώδης
Visibility: 16 km
Cloud details: Few Clouds 518 m
Σχεδόν νεφελώδης 3962 m
2023/09/25 11:53 KOAK 251153Z 12006KT 10SM FEW017 BKN130 13/12 A3006 RMK AO2 SLP178 T01330122 10144 20122 53004
KSQL - San Carlos Airpo, California, USA
Distance from station: ΒΔ 34km
Ενημερώθηκε: 25/09/2023 15:15

 
2023/09/25 12:15 KSQL 251215Z AUTO RMK AO2 PWINO PNO
 
KSFO - San Francisco, California, USA
Distance from station: ΒΔ 49km
Ενημερώθηκε: 25/09/2023 14:56
Σχεδόν νεφελώδης
Σχεδόν νεφελώδης
 Ανεμος από ΝΝΔ
Ανεμος: ΝΝΔ 13 km/h
Θερμοκρασία: 17°C
Σημείο Δρόσου: 13°C
Υγρασία: 77%
Βαρόμετρο: 1017.3 hPa
Clouds: Σχεδόν νεφελώδης
Visibility: 16 km
Cloud details: Σχεδόν νεφελώδης 1158 m
2023/09/25 11:56 KSFO 251156Z 20007KT 10SM BKN038 17/13 A3004 RMK AO2 SLP172 T01720128 10172 20156 53003
KE16 - San Martin, California, USA
Distance from station: ΑΝΑ 43km
Ενημερώθηκε: 07/09/2023 04:35
NOT Current
Αίθριος
Αίθριος
 Ανεμος από Ν
Ανεμος: Ν 19 km/h
Θερμοκρασία: 21°C
Σημείο Δρόσου: 12°C
Υγρασία: 57%
Βαρόμετρο: 1013.9 hPa
Clouds: Αίθριος
Visibility: 16 km
2023/09/07 01:35 KE16 070135Z AUTO 17010KT 10SM CLR 21/12 A2994 RMK AO2 PWINO PNO
 
KWVI - Watsonville, California, USA
Distance from station: ΝΝΑ 44km
Ενημερώθηκε: 25/09/2023 14:53
Συννεφιά
Συννεφιά
 Ανεμος από ΒΔ
Ανεμος: ΒΔ 7 km/h
Θερμοκρασία: 12°C
Σημείο Δρόσου: 11°C
Υγρασία: 94%
Βαρόμετρο: 1018.3 hPa
Clouds: Συννεφιά
Visibility: 16 km
Cloud details: Συννεφιά 244 m
2023/09/25 11:53 KWVI 251153Z AUTO 31004KT 10SM OVC008 12/11 A3007 RMK AO2 SLP181 T01170106 10150 20106 53004
KHAF - Half Moon Bay, California, USA
Distance from station: ΔΒΔ 50km
Ενημερώθηκε: 25/09/2023 15:15

 Ανεμος από ΝΑ
Ανεμος: ΝΑ 9 km/h
Θερμοκρασία: 15°C
Σημείο Δρόσου: 14°C
Υγρασία: 94%
Βαρόμετρο: 1017.6 hPa
Visibility: 16 km
2023/09/25 12:15 KHAF 251215Z AUTO 14005KT 10SM 15/14 A3005 RMK AO2
 
KHWD - Hayward, California, USA
Distance from station: Β 44km
Ενημερώθηκε: 25/09/2023 14:54
Αίθριος
Αίθριος
 Ανεμος από ΝΑ
Ανεμος: ΝΑ 9 km/h
Θερμοκρασία: 13°C
Σημείο Δρόσου: 11°C
Υγρασία: 88%
Βαρόμετρο: 1017.3 hPa
Clouds: Αίθριος
Visibility: 16 km
2023/09/25 11:54 KHWD 251154Z AUTO 13005KT 10SM CLR 13/11 A3004 RMK AO2 SLP182 T01280106 10161 20128 53004
KLVK - Livermore, California, USA
Distance from station: ΒΒΑ 51km
Ενημερώθηκε: 25/09/2023 14:53
Αίθριος
Αίθριος
 Ανεμος από calm
Ανεμος: Απνοια
Θερμοκρασία: 12°C
Σημείο Δρόσου: 10°C
Υγρασία: 88%
Βαρόμετρο: 1017.3 hPa
Clouds: Αίθριος
Visibility: 16 km
2023/09/25 11:53 KLVK 251153Z AUTO 00000KT 10SM CLR 12/10 A3004 RMK AO2 SLP170 T01170100 10156 20111 53004 $